Time;durP1;ratioP1;P1;durP2;ratioP2;P2;SDS_P1;SDS_P2;PMS_P1;PMS_P2;Temp;Humidity;BMP_temperature;BMP_pressure;BME280_temperature;BME280_humidity;BME280_pressure;Samples;Min_cycle;Max_cycle;Signal;HPM_P1;HPM_P2
2023/04/13 00:00:40;;;;;;;4.15;1.88;;;6.70;99.90;;;;;;4975845;28;20121;-61
2023/04/13 00:03:07;;;;;;;4.50;1.90;;;6.80;99.90;;;;;;4993606;28;20118;-62
2023/04/13 00:05:33;;;;;;;5.38;1.52;;;6.80;99.90;;;;;;4988940;28;20047;-62
2023/04/13 00:08:01;;;;;;;5.15;2.00;;;6.80;99.90;;;;;;4957592;28;20366;-62
2023/04/13 00:10:30;;;;;;;3.97;1.60;;;6.90;99.90;;;;;;4973445;28;20050;-62
2023/04/13 00:12:57;;;;;;;5.50;1.80;;;6.90;99.90;;;;;;5011787;28;20104;-62
2023/04/13 00:15:23;;;;;;;5.05;1.95;;;6.90;99.90;;;;;;5007505;28;20367;-62
2023/04/13 00:17:49;;;;;;;5.50;1.70;;;6.90;99.90;;;;;;5015697;28;20390;-62
2023/04/13 00:20:15;;;;;;;4.78;1.77;;;7.00;99.90;;;;;;5015234;28;20045;-62
2023/04/13 00:22:45;;;;;;;4.93;1.60;;;7.00;99.90;;;;;;5014340;28;20399;-62
2023/04/13 00:25:13;;;;;;;5.30;1.98;;;7.10;99.90;;;;;;5031766;28;20041;-62
2023/04/13 00:27:39;;;;;;;6.72;1.80;;;7.10;99.90;;;;;;4998434;28;20158;-62
2023/04/13 00:30:10;;;;;;;7.05;1.90;;;7.10;99.90;;;;;;4998462;28;20134;-62
2023/04/13 00:32:37;;;;;;;5.25;1.98;;;7.10;99.90;;;;;;5014630;28;20045;-62
2023/04/13 00:35:03;;;;;;;6.20;1.90;;;7.20;99.90;;;;;;5032925;28;20041;-61
2023/04/13 00:37:31;;;;;;;3.53;1.70;;;7.10;99.90;;;;;;5031591;28;20199;-61
2023/04/13 00:39:58;;;;;;;5.93;1.65;;;7.10;99.90;;;;;;4998890;28;20045;-61
2023/04/13 00:42:24;;;;;;;4.25;1.30;;;7.00;99.90;;;;;;5032110;28;20491;-61
2023/04/13 00:44:53;;;;;;;4.97;1.77;;;6.90;99.90;;;;;;5032189;28;20478;-61
2023/04/13 00:47:27;;;;;;;3.55;1.20;;;6.90;99.90;;;;;;4998417;28;20040;-61
2023/04/13 00:49:59;;;;;;;4.60;1.50;;;6.80;99.90;;;;;;5014664;28;20041;-60
2023/04/13 00:52:24;;;;;;;4.90;1.40;;;6.70;99.90;;;;;;5013340;28;20049;-60
2023/04/13 00:54:50;;;;;;;5.00;1.60;;;6.70;99.90;;;;;;5032698;28;20041;-61
2023/04/13 00:57:20;;;;;;;5.25;1.63;;;6.70;99.90;;;;;;5032318;28;20067;-60
2023/04/13 00:59:48;;;;;;;3.80;1.33;;;6.60;99.90;;;;;;5014079;28;20046;-61
2023/04/13 01:02:15;;;;;;;3.28;1.30;;;6.60;99.90;;;;;;5015042;28;20088;-60
2023/04/13 01:04:41;;;;;;;3.17;1.30;;;6.50;99.90;;;;;;4997367;28;20098;-60
2023/04/13 01:07:16;;;;;;;3.28;1.10;;;6.50;99.90;;;;;;5032630;28;20041;-60
2023/04/13 01:10:02;;;;;;;;;;;6.50;99.90;;;;;;5032741;28;20120;-60
2023/04/13 01:12:33;;;;;;;3.30;1.20;;;6.40;99.90;;;;;;4955024;28;20294;-61
2023/04/13 01:15:09;;;;;;;3.55;1.08;;;6.40;99.90;;;;;;4991863;28;20101;-61
2023/04/13 01:17:37;;;;;;;5.32;1.67;;;6.40;99.90;;;;;;4991203;28;20081;-60
2023/04/13 01:20:09;;;;;;;3.47;1.30;;;6.40;99.90;;;;;;4990927;28;20050;-60
2023/04/13 01:22:41;;;;;;;4.93;1.50;;;6.40;99.90;;;;;;4991166;28;20046;-61
2023/04/13 01:25:10;;;;;;;4.40;1.23;;;6.40;99.90;;;;;;4975435;28;20189;-61
2023/04/13 01:27:47;;;;;;;3.45;1.30;;;6.40;99.90;;;;;;4990438;28;20092;-60
2023/04/13 01:30:21;;;;;;;3.08;1.20;;;6.40;99.90;;;;;;4991910;28;20046;-61
2023/04/13 01:32:50;;;;;;;4.63;1.30;;;6.40;99.90;;;;;;4974615;28;20073;-61
2023/04/13 01:35:17;;;;;;;3.22;1.33;;;6.40;99.90;;;;;;4991282;28;20570;-61
2023/04/13 01:37:43;;;;;;;2.90;1.27;;;6.40;99.90;;;;;;4991227;28;20546;-61
2023/04/13 01:40:11;;;;;;;4.63;1.30;;;6.40;99.90;;;;;;4991022;28;20051;-60
2023/04/13 01:42:41;;;;;;;4.70;1.60;;;6.30;99.90;;;;;;4974742;28;20140;-60
2023/04/13 01:45:53;;;;;;;4.35;1.40;;;6.30;99.90;;;;;;4991672;28;20110;-61
2023/04/13 01:48:50;;;;;;;8.32;2.33;;;6.40;99.90;;;;;;4944554;28;20117;-61
2023/04/13 01:51:18;;;;;;;4.00;1.35;;;6.40;99.90;;;;;;4991042;28;20073;-60
2023/04/13 01:53:48;;;;;;;4.30;1.80;;;6.40;99.90;;;;;;4990902;28;20039;-61
2023/04/13 01:56:18;;;;;;;4.40;1.58;;;6.40;99.90;;;;;;4992340;28;20495;-61
2023/04/13 01:58:48;;;;;;;4.95;1.40;;;6.40;99.90;;;;;;4992471;28;20046;-61
2023/04/13 02:01:14;;;;;;;5.22;1.88;;;6.40;99.90;;;;;;4991512;28;20042;-61
2023/04/13 02:03:42;;;;;;;4.95;1.70;;;6.40;99.90;;;;;;4994625;28;20046;-61
2023/04/13 02:06:09;;;;;;;4.03;1.33;;;6.40;99.90;;;;;;4995326;28;20068;-61
2023/04/13 02:08:36;;;;;;;5.28;1.88;;;6.40;99.90;;;;;;4994970;28;20046;-61
2023/04/13 02:11:02;;;;;;;4.25;1.70;;;6.40;99.90;;;;;;5004614;28;20423;-60
2023/04/13 02:13:29;;;;;;;4.93;1.75;;;6.40;99.90;;;;;;4994484;28;20045;-61
2023/04/13 02:15:56;;;;;;;4.68;1.70;;;6.40;99.90;;;;;;4994265;28;20542;-61
2023/04/13 02:18:22;;;;;;;6.38;2.05;;;6.40;99.90;;;;;;4994386;28;20046;-61
2023/04/13 02:21:06;;;;;;;5.57;2.10;;;6.40;99.90;;;;;;4978735;28;20460;-61
2023/04/13 02:23:33;;;;;;;4.20;1.80;;;6.40;99.90;;;;;;4994598;28;20502;-60
2023/04/13 02:25:59;;;;;;;4.45;2.13;;;6.40;99.90;;;;;;5006380;28;20139;-60
2023/04/13 02:28:26;;;;;;;8.38;2.10;;;6.40;99.90;;;;;;4997769;28;20502;-61
2023/04/13 02:30:53;;;;;;;6.47;2.05;;;6.30;99.90;;;;;;4998335;28;20397;-61
2023/04/13 02:33:20;;;;;;;7.22;3.35;;;6.40;99.90;;;;;;5014020;28;20041;-61
2023/04/13 02:35:47;;;;;;;5.85;2.15;;;6.40;99.90;;;;;;5015519;28;20042;-61
2023/04/13 02:38:14;;;;;;;4.90;1.90;;;6.40;99.90;;;;;;5013206;28;20053;-61
2023/04/13 02:40:41;;;;;;;4.50;2.00;;;6.40;99.90;;;;;;4997338;28;20042;-61
2023/04/13 02:43:11;;;;;;;4.45;1.90;;;6.40;99.90;;;;;;5013710;28;20116;-61
2023/04/13 02:45:38;;;;;;;4.53;1.88;;;6.40;99.90;;;;;;5013419;28;20057;-60
2023/04/13 02:48:04;;;;;;;5.00;2.10;;;6.40;99.90;;;;;;5030362;28;20037;-60
2023/04/13 02:50:30;;;;;;;4.47;2.05;;;6.40;99.90;;;;;;5012923;28;20430;-60
2023/04/13 02:52:56;;;;;;;4.43;1.42;;;6.40;99.90;;;;;;5014171;28;20038;-61
2023/04/13 02:55:21;;;;;;;6.57;2.00;;;6.40;99.90;;;;;;5013219;28;20054;-61
2023/04/13 02:57:48;;;;;;;6.00;2.40;;;6.40;99.90;;;;;;5014523;28;20409;-61
2023/04/13 03:00:15;;;;;;;3.97;1.73;;;6.40;99.90;;;;;;5013858;28;20517;-61
2023/04/13 03:02:41;;;;;;;3.88;1.60;;;6.40;99.90;;;;;;5014489;28;20491;-61
2023/04/13 03:05:08;;;;;;;5.38;2.30;;;6.40;99.90;;;;;;5012851;28;20040;-61
2023/04/13 03:07:35;;;;;;;6.28;1.90;;;6.50;99.90;;;;;;5013195;28;20042;-61
2023/04/13 03:10:04;;;;;;;5.18;2.03;;;6.50;99.90;;;;;;4997321;28;20038;-61
2023/04/13 03:12:33;;;;;;;6.28;2.20;;;6.50;99.90;;;;;;5011720;28;20085;-61
2023/04/13 03:15:03;;;;;;;5.13;2.28;;;6.50;99.90;;;;;;4997093;28;20049;-61
2023/04/13 03:17:29;;;;;;;4.55;2.05;;;6.50;99.90;;;;;;5012858;28;20411;-61
2023/04/13 03:19:56;;;;;;;4.35;2.15;;;6.50;99.90;;;;;;5013913;28;20045;-61
2023/04/13 03:22:22;;;;;;;4.57;1.83;;;6.50;99.90;;;;;;5013767;28;20048;-60
2023/04/13 03:24:48;;;;;;;5.43;1.60;;;6.50;99.90;;;;;;5013251;28;20510;-60
2023/04/13 03:27:14;;;;;;;4.72;1.92;;;6.40;99.90;;;;;;5012625;28;20034;-60
2023/04/13 03:29:40;;;;;;;2.92;1.10;;;6.30;99.90;;;;;;4996838;28;20203;-61
2023/04/13 03:32:06;;;;;;;4.13;1.60;;;6.20;99.90;;;;;;5013193;28;20128;-61
2023/04/13 03:34:32;;;;;;;5.15;2.30;;;6.20;99.90;;;;;;4995615;28;20042;-61
2023/04/13 03:36:57;;;;;;;4.47;2.00;;;6.30;99.90;;;;;;5013082;28;20041;-60
2023/04/13 03:39:23;;;;;;;5.78;2.50;;;6.30;99.90;;;;;;5011728;28;20509;-61
2023/04/13 03:41:49;;;;;;;5.13;2.53;;;6.30;99.90;;;;;;5014367;28;20040;-61
2023/04/13 03:44:15;;;;;;;4.93;1.85;;;6.30;99.90;;;;;;5013098;28;20541;-61
2023/04/13 03:46:41;;;;;;;6.50;2.47;;;6.30;99.90;;;;;;5012909;28;20558;-61
2023/04/13 03:49:08;;;;;;;4.20;2.03;;;6.30;99.90;;;;;;5014068;28;20049;-61
2023/04/13 03:51:37;;;;;;;4.00;1.90;;;6.30;99.90;;;;;;4995798;28;20084;-61
2023/04/13 03:54:03;;;;;;;6.45;2.10;;;6.30;99.90;;;;;;5013387;28;20041;-61
2023/04/13 03:56:30;;;;;;;5.88;2.05;;;6.30;99.90;;;;;;5013438;28;20380;-61
2023/04/13 03:58:56;;;;;;;4.97;2.10;;;6.30;99.90;;;;;;5012994;28;20049;-61
2023/04/13 04:01:25;;;;;;;4.78;1.90;;;6.30;99.90;;;;;;5011573;28;20038;-61
2023/04/13 04:03:54;;;;;;;4.25;1.83;;;6.30;99.90;;;;;;5012878;28;20434;-61
2023/04/13 04:06:20;;;;;;;5.55;2.17;;;6.30;99.90;;;;;;5008431;28;20046;-60
2023/04/13 04:08:48;;;;;;;6.15;2.33;;;6.30;99.90;;;;;;4992134;28;20443;-61
2023/04/13 04:11:17;;;;;;;5.88;2.20;;;6.30;99.90;;;;;;5013291;28;20387;-61
2023/04/13 04:13:42;;;;;;;8.02;2.20;;;6.30;99.90;;;;;;5015514;28;20042;-61
2023/04/13 04:16:10;;;;;;;5.50;2.00;;;6.30;99.90;;;;;;5032545;28;20076;-61
2023/04/13 04:18:36;;;;;;;4.65;2.00;;;6.20;99.90;;;;;;5032597;28;20042;-61
2023/04/13 04:21:02;;;;;;;7.00;1.80;;;6.20;99.90;;;;;;4999161;28;20056;-61
2023/04/13 04:23:28;;;;;;;4.57;1.65;;;6.10;99.90;;;;;;5013633;28;20071;-61
2023/04/13 04:25:58;;;;;;;8.07;2.08;;;6.10;99.90;;;;;;5011931;28;20676;-61
2023/04/13 04:28:24;;;;;;;5.25;1.83;;;6.10;99.90;;;;;;4995412;28;20040;-61
2023/04/13 04:30:54;;;;;;;5.10;1.77;;;6.10;99.90;;;;;;5012804;28;20070;-61
2023/04/13 04:33:23;;;;;;;4.00;1.60;;;6.10;99.90;;;;;;4997620;28;20049;-61
2023/04/13 04:35:50;;;;;;;4.97;2.55;;;6.10;99.90;;;;;;5014418;28;20045;-61
2023/04/13 04:38:16;;;;;;;5.97;1.92;;;6.10;99.90;;;;;;5032607;28;20087;-61
2023/04/13 04:40:45;;;;;;;5.22;2.05;;;6.20;99.90;;;;;;5032526;28;20041;-61
2023/04/13 04:43:14;;;;;;;6.55;2.30;;;6.20;99.90;;;;;;5014422;28;20481;-61
2023/04/13 04:45:42;;;;;;;5.65;2.05;;;6.10;99.90;;;;;;5014586;28;20520;-61
2023/04/13 04:48:12;;;;;;;6.95;2.20;;;6.10;99.90;;;;;;5014806;28;20556;-61
2023/04/13 04:50:38;;;;;;;7.25;2.53;;;6.10;99.90;;;;;;5031366;28;20402;-61
2023/04/13 04:53:04;;;;;;;4.95;1.73;;;6.10;99.90;;;;;;5014911;28;20045;-61
2023/04/13 04:55:30;;;;;;;6.20;2.10;;;6.10;99.90;;;;;;5014352;28;20041;-61
2023/04/13 04:57:56;;;;;;;6.97;2.50;;;6.10;99.90;;;;;;5032092;28;20121;-61
2023/04/13 05:00:24;;;;;;;5.05;2.15;;;6.10;99.90;;;;;;5014341;28;20490;-61
2023/04/13 05:02:49;;;;;;;8.05;2.42;;;6.00;99.90;;;;;;4998319;28;20048;-61
2023/04/13 05:05:15;;;;;;;4.97;1.95;;;6.00;99.90;;;;;;5031289;28;20037;-61
2023/04/13 05:07:41;;;;;;;5.10;1.92;;;6.00;99.90;;;;;;5014436;28;20033;-61
2023/04/13 05:10:08;;;;;;;7.88;2.45;;;6.00;99.90;;;;;;5014854;28;20121;-61
2023/04/13 05:12:34;;;;;;;10.07;2.22;;;6.00;99.90;;;;;;5013206;28;20053;-61
2023/04/13 05:15:00;;;;;;;6.22;2.10;;;6.00;99.90;;;;;;5014896;28;20558;-61
2023/04/13 05:17:26;;;;;;;6.43;2.65;;;6.00;99.90;;;;;;4997681;28;20109;-61
2023/04/13 05:19:51;;;;;;;5.68;2.22;;;6.00;99.90;;;;;;4997381;28;20502;-61
2023/04/13 05:22:17;;;;;;;9.35;2.50;;;6.00;99.90;;;;;;5032121;28;20083;-62
2023/04/13 05:24:43;;;;;;;5.80;1.95;;;6.00;99.90;;;;;;5014113;28;20490;-61
2023/04/13 05:27:10;;;;;;;5.55;2.40;;;6.00;99.90;;;;;;5013636;28;20060;-61
2023/04/13 05:29:36;;;;;;;5.25;2.42;;;5.90;99.90;;;;;;5013761;28;20048;-61
2023/04/13 05:32:02;;;;;;;5.45;2.72;;;6.00;99.90;;;;;;5013649;28;20033;-61
2023/04/13 05:34:28;;;;;;;6.00;2.30;;;6.00;99.90;;;;;;5013783;28;20042;-61
2023/04/13 05:36:54;;;;;;;5.00;2.25;;;6.00;99.90;;;;;;5014397;28;20045;-61
2023/04/13 05:39:20;;;;;;;9.35;2.85;;;6.10;99.90;;;;;;5012829;28;20041;-61
2023/04/13 05:41:46;;;;;;;7.45;2.78;;;6.10;99.90;;;;;;5014479;28;20049;-61
2023/04/13 05:44:12;;;;;;;6.78;2.20;;;6.20;99.90;;;;;;5014387;28;20124;-61
2023/04/13 05:46:38;;;;;;;7.03;2.80;;;6.20;99.90;;;;;;5030287;28;20132;-61
2023/04/13 05:49:04;;;;;;;5.88;2.50;;;6.20;99.90;;;;;;5014228;28;20033;-61
2023/04/13 05:51:31;;;;;;;6.40;2.65;;;6.30;99.90;;;;;;5031421;28;20038;-61
2023/04/13 05:53:57;;;;;;;10.48;3.30;;;6.30;99.90;;;;;;5030979;28;20040;-61
2023/04/13 05:56:24;;;;;;;7.95;2.42;;;6.40;99.90;;;;;;5013904;28;20103;-61
2023/04/13 05:58:51;;;;;;;5.30;2.22;;;6.50;99.90;;;;;;5014319;28;20072;-61
2023/04/13 06:01:18;;;;;;;13.02;2.70;;;6.50;99.90;;;;;;4996387;28;20049;-61
2023/04/13 06:03:45;;;;;;;7.40;2.70;;;6.60;99.90;;;;;;5013826;28;20045;-61
2023/04/13 06:06:11;;;;;;;10.98;3.30;;;6.70;99.90;;;;;;5014114;28;20042;-61
2023/04/13 06:08:39;;;;;;;6.78;2.78;;;6.70;99.90;;;;;;4996413;28;20075;-61
2023/04/13 06:11:05;;;;;;;8.90;2.75;;;6.70;99.90;;;;;;4997672;28;20046;-61
2023/04/13 06:13:32;;;;;;;8.23;3.00;;;6.80;99.90;;;;;;5013608;28;20077;-61
2023/04/13 06:15:58;;;;;;;10.63;2.65;;;6.80;99.90;;;;;;5013342;28;20072;-61
2023/04/13 06:18:27;;;;;;;7.38;2.28;;;6.80;99.90;;;;;;5013387;28;20471;-61
2023/04/13 06:20:54;;;;;;;11.73;2.38;;;6.70;99.90;;;;;;5031673;28;20041;-61
2023/04/13 06:23:20;;;;;;;7.00;2.33;;;6.70;99.90;;;;;;4996370;28;20037;-61
2023/04/13 06:25:46;;;;;;;8.15;2.95;;;6.70;99.90;;;;;;4997700;28;20440;-62
2023/04/13 06:28:12;;;;;;;12.65;3.97;;;6.80;99.90;;;;;;4996812;28;20125;-61
2023/04/13 06:30:38;;;;;;;8.70;2.40;;;6.90;99.90;;;;;;5013223;28;20037;-61
2023/04/13 06:33:04;;;;;;;5.25;2.40;;;6.90;99.90;;;;;;5031583;28;20037;-61
2023/04/13 06:35:30;;;;;;;7.07;3.15;;;7.00;99.90;;;;;;4995957;28;20498;-61
2023/04/13 06:37:58;;;;;;;10.48;4.07;;;7.10;99.90;;;;;;5031338;28;20091;-61
2023/04/13 06:40:26;;;;;;;13.82;4.35;;;7.10;99.90;;;;;;5031054;28;20033;-61
2023/04/13 06:42:53;;;;;;;11.07;4.75;;;7.10;99.90;;;;;;5013312;28;20049;-61
2023/04/13 06:45:20;;;;;;;17.20;4.93;;;7.20;99.90;;;;;;5030872;28;20048;-61
2023/04/13 06:47:46;;;;;;;23.33;7.15;;;7.20;99.90;;;;;;4999178;28;20419;-61
2023/04/13 06:50:14;;;;;;;15.20;5.68;;;7.30;99.90;;;;;;5000158;28;20048;-61
2023/04/13 06:52:44;;;;;;;11.07;4.13;;;7.30;99.90;;;;;;5034716;28;20038;-61
2023/04/13 06:55:11;;;;;;;11.55;4.32;;;7.30;99.90;;;;;;5017393;28;20083;-61
2023/04/13 06:57:36;;;;;;;12.88;4.75;;;7.30;99.90;;;;;;4999374;28;20034;-61
2023/04/13 07:00:05;;;;;;;11.23;3.85;;;7.40;99.90;;;;;;5017051;28;20049;-61
2023/04/13 07:02:31;;;;;;;10.98;2.83;;;7.50;99.90;;;;;;5029569;28;20030;-61
2023/04/13 07:04:57;;;;;;;8.88;3.33;;;7.60;99.90;;;;;;5016343;28;20483;-61
2023/04/13 07:07:22;;;;;;;9.32;3.00;;;7.70;99.90;;;;;;5014199;28;20056;-61
2023/04/13 07:09:48;;;;;;;10.35;2.80;;;7.90;99.90;;;;;;5016751;28;20483;-61
2023/04/13 07:12:14;;;;;;;7.70;3.00;;;8.00;99.90;;;;;;5032384;28;20136;-61
2023/04/13 07:14:40;;;;;;;10.45;3.47;;;8.10;99.90;;;;;;5001666;28;20561;-62
2023/04/13 07:17:06;;;;;;;11.82;2.97;;;8.10;99.90;;;;;;5014696;28;20095;-62
2023/04/13 07:19:33;;;;;;;9.60;2.47;;;8.10;99.90;;;;;;4996857;28;20486;-62
2023/04/13 07:22:00;;;;;;;10.82;3.22;;;8.10;99.90;;;;;;5032122;28;20071;-62
2023/04/13 07:24:27;;;;;;;5.13;2.05;;;8.20;99.90;;;;;;5029467;28;20049;-62
2023/04/13 07:26:55;;;;;;;8.40;2.30;;;8.20;99.90;;;;;;5013533;28;20120;-62
2023/04/13 07:29:21;;;;;;;10.18;3.90;;;8.20;99.90;;;;;;5013951;28;20052;-62
2023/04/13 07:31:46;;;;;;;42.47;23.17;;;8.20;99.90;;;;;;5031260;28;20037;-62
2023/04/13 07:34:12;;;;;;;147.20;80.82;;;8.20;99.90;;;;;;5011910;28;20044;-62
2023/04/13 07:36:39;;;;;;;13.88;6.28;;;8.20;99.90;;;;;;5009357;28;20033;-62
2023/04/13 07:39:07;;;;;;;9.20;3.40;;;8.20;99.90;;;;;;5028513;28;20053;-62
2023/04/13 07:41:33;;;;;;;11.18;4.15;;;8.30;99.90;;;;;;5012204;28;20168;-62
2023/04/13 07:43:59;;;;;;;5.60;2.25;;;8.30;99.90;;;;;;5013215;28;20141;-63
2023/04/13 07:46:25;;;;;;;4.82;1.50;;;8.40;99.90;;;;;;5029553;28;20561;-62
2023/04/13 07:48:55;;;;;;;4.72;1.73;;;8.50;99.90;;;;;;5010194;28;20045;-62
2023/04/13 07:51:21;;;;;;;5.25;2.10;;;8.40;99.90;;;;;;5025162;28;20037;-62
2023/04/13 07:53:47;;;;;;;5.82;1.77;;;8.50;99.90;;;;;;5029913;28;20406;-62
2023/04/13 07:56:13;;;;;;;7.53;1.75;;;8.70;99.90;;;;;;5030070;28;20044;-63
2023/04/13 07:58:39;;;;;;;5.38;1.60;;;8.90;99.90;;;;;;4991403;28;20053;-62
2023/04/13 08:01:06;;;;;;;9.18;1.83;;;9.00;99.90;;;;;;5011612;28;20050;-63
2023/04/13 08:03:34;;;;;;;6.43;1.85;;;9.00;99.90;;;;;;5027288;28;20072;-62
2023/04/13 08:06:00;;;;;;;7.40;3.10;;;8.90;99.90;;;;;;5013385;28;20080;-62
2023/04/13 08:08:26;;;;;;;6.90;1.90;;;8.70;99.90;;;;;;5011645;28;20037;-63
2023/04/13 08:10:52;;;;;;;8.13;1.88;;;8.40;99.90;;;;;;5011140;28;20041;-62
2023/04/13 08:13:18;;;;;;;4.32;1.52;;;8.10;99.90;;;;;;5030999;28;20112;-62
2023/04/13 08:15:44;;;;;;;3.70;1.08;;;7.80;99.90;;;;;;4995847;28;20049;-61
2023/04/13 08:18:09;;;;;;;5.18;1.00;;;7.50;99.90;;;;;;5011879;28;20600;-61
2023/04/13 08:20:35;;;;;;;1.77;0.63;;;7.10;99.90;;;;;;5030487;28;20056;-61
2023/04/13 08:23:02;;;;;;;2.80;0.52;;;6.90;99.90;;;;;;5012570;28;20046;-61
2023/04/13 08:25:28;;;;;;;2.70;0.88;;;6.80;99.90;;;;;;5012638;28;20049;-61
2023/04/13 08:27:54;;;;;;;2.25;0.75;;;6.80;99.90;;;;;;5029775;28;20038;-61
2023/04/13 08:30:20;;;;;;;4.72;0.90;;;6.90;99.90;;;;;;5010982;28;20033;-61
2023/04/13 08:32:45;;;;;;;3.05;0.82;;;7.10;99.90;;;;;;5028820;28;20513;-61
2023/04/13 08:35:11;;;;;;;4.65;1.25;;;7.30;99.90;;;;;;5011969;28;20124;-61
2023/04/13 08:37:38;;;;;;;3.63;1.00;;;7.60;99.90;;;;;;5011543;28;20044;-61
2023/04/13 08:40:06;;;;;;;5.75;1.42;;;7.80;99.90;;;;;;5029672;28;20490;-61
2023/04/13 08:42:35;;;;;;;4.82;1.40;;;8.10;99.90;;;;;;4995367;28;20037;-62
2023/04/13 08:45:02;;;;;;;6.20;1.60;;;8.30;99.90;;;;;;5012513;28;20103;-61
2023/04/13 08:47:28;;;;;;;7.10;2.03;;;8.40;99.90;;;;;;5008083;28;20042;-62
2023/04/13 08:50:00;;;;;;;5.47;1.77;;;8.40;99.90;;;;;;5009284;28;20053;-61
2023/04/13 08:52:27;;;;;;;8.10;1.95;;;8.40;99.90;;;;;;5024504;28;20049;-62
2023/04/13 08:54:54;;;;;;;6.63;2.83;;;8.30;99.90;;;;;;5012425;28;20053;-61
2023/04/13 08:57:21;;;;;;;3.63;1.55;;;8.20;99.90;;;;;;5010102;28;20045;-62
2023/04/13 08:59:49;;;;;;;4.38;1.20;;;8.30;99.90;;;;;;4995851;28;20045;-61
2023/04/13 09:02:16;;;;;;;4.32;1.10;;;8.40;99.90;;;;;;5028650;28;20075;-61
2023/04/13 09:04:43;;;;;;;3.60;1.17;;;8.40;99.90;;;;;;4994725;28;20044;-61
2023/04/13 09:07:14;;;;;;;3.75;1.00;;;8.50;99.90;;;;;;5008789;28;20044;-62
2023/04/13 09:09:42;;;;;;;4.53;1.08;;;8.70;99.90;;;;;;4997279;28;20040;-62
2023/04/13 09:12:08;;;;;;;3.58;1.10;;;8.90;99.90;;;;;;5005729;28;20098;-61
2023/04/13 09:14:37;;;;;;;6.53;1.52;;;9.00;99.90;;;;;;5025840;28;20041;-61
2023/04/13 09:17:03;;;;;;;4.88;1.33;;;9.10;99.90;;;;;;5007247;28;20055;-61
2023/04/13 09:19:32;;;;;;;8.45;5.05;;;9.40;99.90;;;;;;5002890;28;20038;-61
2023/04/13 09:21:59;;;;;;;4.63;1.67;;;9.40;99.90;;;;;;4993008;28;20034;-61
2023/04/13 09:24:26;;;;;;;4.07;1.60;;;9.50;99.90;;;;;;5028219;28;20061;-62
2023/04/13 09:26:51;;;;;;;8.00;2.50;;;9.50;99.90;;;;;;5007393;28;20053;-61
2023/04/13 09:29:20;;;;;;;6.00;1.88;;;9.40;99.90;;;;;;5009643;28;20049;-62
2023/04/13 09:31:46;;;;;;;4.15;1.20;;;9.40;99.90;;;;;;4991495;28;20038;-62
2023/04/13 09:34:14;;;;;;;5.75;1.23;;;9.40;99.90;;;;;;4991740;28;20041;-61
2023/04/13 09:36:40;;;;;;;8.65;3.28;;;9.20;99.90;;;;;;5011182;28;20565;-62
2023/04/13 09:39:06;;;;;;;9.50;1.92;;;9.20;99.90;;;;;;5010742;28;20045;-62
2023/04/13 09:41:38;;;;;;;10.32;3.72;;;9.30;99.90;;;;;;4994509;28;20045;-62
2023/04/13 09:44:23;;;;;;;5.07;1.42;;;9.30;99.90;;;;;;5011878;28;20116;-62
2023/04/13 09:47:02;;;;;;;5.43;1.50;;;9.30;99.90;;;;;;5028065;28;20060;-62
2023/04/13 09:49:38;;;;;;;7.40;1.33;;;9.20;99.90;;;;;;5003670;28;20037;-61
2023/04/13 09:52:06;;;;;;;5.20;1.45;;;9.20;99.90;;;;;;5007528;28;20070;-61
2023/04/13 09:54:32;;;;;;;3.38;1.15;;;9.20;99.90;;;;;;4991404;28;20403;-62
2023/04/13 09:56:58;;;;;;;3.38;1.05;;;9.20;99.90;;;;;;5009804;28;20121;-62
2023/04/13 09:59:26;;;;;;;7.35;2.65;;;9.10;99.90;;;;;;5016518;28;20854;-63
2023/04/13 10:01:53;;;;;;;4.90;1.50;;;9.10;99.90;;;;;;4993864;28;20042;-62
2023/04/13 10:04:19;;;;;;;4.30;1.42;;;9.10;99.90;;;;;;4991916;28;20050;-63
2023/04/13 10:06:46;;;;;;;5.35;1.52;;;9.40;99.90;;;;;;5001725;28;20461;-62
2023/04/13 10:09:13;;;;;;;5.65;1.80;;;9.60;99.90;;;;;;4997608;28;20051;-62
2023/04/13 10:11:48;;;;;;;6.10;2.53;;;9.80;99.90;;;;;;5026385;28;20047;-62
2023/04/13 10:14:22;;;;;;;8.30;3.83;;;10.10;99.90;;;;;;5026544;28;20042;-62
2023/04/13 10:17:07;;;;;;;7.93;3.55;;;10.20;99.90;;;;;;5002750;28;20498;-62
2023/04/13 10:19:47;;;;;;;18.15;13.65;;;10.10;99.90;;;;;;5020726;28;20055;-62
2023/04/13 10:22:14;;;;;;;6.50;2.10;;;10.00;99.90;;;;;;5032027;28;20049;-62
2023/04/13 10:24:40;;;;;;;8.13;4.00;;;9.70;99.90;;;;;;5017041;28;20095;-62
2023/04/13 10:27:14;;;;;;;9.93;5.15;;;9.60;99.90;;;;;;5017784;28;20056;-62
2023/04/13 10:29:40;;;;;;;17.63;7.53;;;9.40;99.90;;;;;;5035009;28;20107;-62
2023/04/13 10:32:06;;;;;;;9.57;6.03;;;9.20;99.90;;;;;;5017986;28;20037;-62
2023/04/13 10:34:33;;;;;;;3.95;1.40;;;9.00;99.90;;;;;;5016417;28;20487;-62
2023/04/13 10:37:02;;;;;;;7.72;3.22;;;8.70;99.90;;;;;;5017475;28;20041;-62
2023/04/13 10:39:34;;;;;;;8.23;3.75;;;8.50;99.90;;;;;;5016990;28;20045;-61
2023/04/13 10:42:11;;;;;;;6.53;1.60;;;8.20;99.90;;;;;;5033204;28;20046;-61
2023/04/13 10:44:46;;;;;;;5.15;1.80;;;8.00;99.90;;;;;;5017122;28;20060;-61
2023/04/13 10:47:12;;;;;;;4.90;1.38;;;7.90;99.90;;;;;;5017687;28;20037;-61
2023/04/13 10:49:39;;;;;;;6.20;1.60;;;7.90;99.90;;;;;;5016120;28;20045;-61
2023/04/13 10:52:06;;;;;;;6.28;2.72;;;7.90;99.90;;;;;;5017381;28;20413;-61
2023/04/13 10:54:33;;;;;;;8.07;3.33;;;7.90;99.90;;;;;;5016620;28;20045;-61
2023/04/13 10:57:02;;;;;;;6.25;1.60;;;8.00;99.90;;;;;;5016392;28;20426;-62
2023/04/13 10:59:52;;;;;;;8.90;3.30;;;8.00;99.90;;;;;;5016467;28;20041;-61
2023/04/13 11:02:18;;;;;;;6.68;2.15;;;8.10;99.90;;;;;;5034407;28;20034;-61
2023/04/13 11:04:46;;;;;;;5.82;1.45;;;8.20;99.90;;;;;;5033425;28;20514;-61
2023/04/13 11:07:22;;;;;;;6.90;1.77;;;8.40;99.90;;;;;;5017023;28;20037;-61
2023/04/13 11:09:49;;;;;;;6.95;2.30;;;8.40;99.90;;;;;;5034022;28;20045;-61
2023/04/13 11:12:16;;;;;;;6.22;2.38;;;8.40;99.90;;;;;;5033151;28;20098;-61
2023/04/13 11:14:49;;;;;;;5.72;1.60;;;8.30;99.90;;;;;;5000124;28;20038;-60
2023/04/13 11:17:17;;;;;;;7.30;3.28;;;8.30;99.90;;;;;;5015971;28;20491;-61
2023/04/13 11:19:47;;;;;;;3.80;1.30;;;8.10;99.90;;;;;;5034292;28;20418;-61
2023/04/13 11:22:17;;;;;;;7.50;1.90;;;8.10;99.90;;;;;;5000297;28;20034;-61
2023/04/13 11:24:44;;;;;;;8.05;1.95;;;8.00;99.90;;;;;;5015809;28;20046;-61
2023/04/13 11:27:20;;;;;;;7.30;2.40;;;8.00;99.90;;;;;;5016593;28;20068;-61
2023/04/13 11:29:56;;;;;;;7.47;2.47;;;8.10;99.90;;;;;;5016955;28;20394;-60
2023/04/13 11:32:22;;;;;;;8.15;3.40;;;8.20;99.90;;;;;;5031651;28;20401;-61
2023/04/13 11:34:49;;;;;;;13.30;6.80;;;8.40;99.90;;;;;;5000029;28;20037;-61
2023/04/13 11:37:15;;;;;;;13.63;6.25;;;8.50;99.90;;;;;;5034038;28;20052;-61
2023/04/13 11:39:42;;;;;;;8.45;3.72;;;8.70;99.90;;;;;;5032895;28;20033;-61
2023/04/13 11:42:08;;;;;;;15.50;6.22;;;8.80;99.90;;;;;;5016349;28;20074;-61
2023/04/13 11:44:36;;;;;;;11.85;2.55;;;8.80;99.90;;;;;;5015552;28;20790;-61
2023/04/13 11:47:02;;;;;;;9.18;2.60;;;8.90;99.90;;;;;;5033917;28;20098;-62
2023/04/13 11:49:30;;;;;;;17.55;5.25;;;8.90;99.90;;;;;;5015656;28;20038;-62
2023/04/13 11:51:57;;;;;;;11.70;2.90;;;9.00;99.90;;;;;;4998950;28;20076;-62
2023/04/13 11:54:23;;;;;;;12.35;4.30;;;9.00;99.90;;;;;;5033066;28;20048;-62
2023/04/13 11:56:49;;;;;;;9.18;2.80;;;9.20;99.90;;;;;;5016151;28;20037;-62
2023/04/13 11:59:15;;;;;;;12.85;3.15;;;9.30;99.90;;;;;;5015039;28;20264;-62
2023/04/13 12:01:48;;;;;;;15.63;4.15;;;9.40;99.90;;;;;;4999330;28;20077;-61
2023/04/13 12:04:13;;;;;;;11.27;2.92;;;9.50;99.90;;;;;;5016092;28;20037;-62
2023/04/13 12:06:40;;;;;;;16.50;4.68;;;9.70;99.90;;;;;;5014411;28;20160;-62
2023/04/13 12:09:08;;;;;;;7.38;3.35;;;9.80;99.90;;;;;;5015759;28;20053;-62
2023/04/13 12:11:39;;;;;;;8.80;2.83;;;9.90;99.90;;;;;;5031883;28;20053;-62
2023/04/13 12:14:05;;;;;;;9.45;3.08;;;9.90;99.90;;;;;;5030506;28;20080;-61
2023/04/13 12:16:33;;;;;;;9.13;3.30;;;10.00;99.90;;;;;;5011533;28;20049;-61
2023/04/13 12:59:17;;;;;;;11.60;4.25;;;10.10;99.90;;;;;;5010887;28;20045;-61
2023/04/13 13:01:42;;;;;;;11.63;3.33;;;10.20;99.90;;;;;;5029842;28;20037;-61
2023/04/13 13:04:08;;;;;;;8.05;2.65;;;10.20;99.90;;;;;;5011816;28;20093;-61
2023/04/13 13:06:34;;;;;;;8.45;2.97;;;10.30;99.90;;;;;;5029607;28;20080;-61
2023/04/13 13:08:59;;;;;;;15.63;4.18;;;10.30;99.90;;;;;;4995505;28;20083;-61
2023/04/13 13:11:26;;;;;;;11.45;3.17;;;10.40;99.90;;;;;;4994991;28;20093;-61
2023/04/13 13:13:52;;;;;;;17.83;2.78;;;10.30;99.90;;;;;;5012284;28;20046;-62
2023/04/13 13:16:18;;;;;;;8.85;2.58;;;10.30;99.90;;;;;;5006854;28;20045;-61
2023/04/13 13:18:44;;;;;;;10.75;3.00;;;10.30;99.90;;;;;;5002277;28;20439;-61
2023/04/13 13:21:10;;;;;;;11.45;2.80;;;10.40;99.90;;;;;;5009763;28;20048;-61
2023/04/13 13:23:36;;;;;;;12.48;3.13;;;10.40;99.90;;;;;;5024173;28;20406;-61
2023/04/13 13:26:02;;;;;;;8.50;2.65;;;10.50;99.90;;;;;;5028825;28;20049;-61
2023/04/13 13:28:27;;;;;;;9.60;2.78;;;10.70;99.90;;;;;;5029336;28;20045;-61
2023/04/13 13:30:53;;;;;;;13.13;3.58;;;10.60;99.90;;;;;;5010338;28;20040;-61
2023/04/13 13:33:18;;;;;;;12.10;3.33;;;10.60;99.90;;;;;;5011259;28;20050;-61
2023/04/13 13:35:44;;;;;;;7.68;2.47;;;10.70;99.90;;;;;;5010696;28;20050;-61
2023/04/13 13:38:10;;;;;;;7.63;2.55;;;10.60;99.90;;;;;;5010867;28;20049;-61